Terminal Aerodrome Forecast
Issued by NWS Wilmington, OH

Current Version | Previous Version | Graphics & Text | Print | Product List | Glossary On
Versions: 1 2 3 4 5 6 7 8 9 10 11 12 13 14 15 16 17 18 19 20 21
000
FTUS41 KILN 171300 AAA
TAFCMH
TAF AMD
KCMH 171307Z 1713/1812 14006KT P6SM BKN070 BKN250
     FM172100 17006KT P6SM VCSH OVC050
     FM180200 15003KT P6SM OVC050=

USA.gov is the U.S. government's official web portal to all federal, state and local government web resources and services.